TAF KDLS
AMD KDLS 091011Z 0910/1006 27005KT P6SM SCT025 OVC080 TEMPO 0910/0912 BKN025 FM092000 30012G22KT P6SM OVC070 FM100300 29014G20KT P6SM FEW250=
METAR KDLS
WC KDLS
WS KDLS
WV KDLS